sensor_id;sensor_type;location;lat;lon;timestamp;P1;durP1;ratioP1;P2;durP2;ratioP2
78783;SDS011;68127;51.050;14.084;2023-08-20T00:02:07;9.57;;;7.07;;
78783;SDS011;68127;51.050;14.084;2023-08-20T00:04:33;9.15;;;6.90;;
78783;SDS011;68127;51.050;14.084;2023-08-20T00:07:01;10.45;;;7.10;;
78783;SDS011;68127;51.050;14.084;2023-08-20T00:09:27;8.32;;;6.97;;
78783;SDS011;68127;51.050;14.084;2023-08-20T00:11:52;8.88;;;6.75;;
78783;SDS011;68127;51.050;14.084;2023-08-20T00:14:18;8.50;;;6.78;;
78783;SDS011;68127;51.050;14.084;2023-08-20T00:16:43;8.68;;;6.03;;
78783;SDS011;68127;51.050;14.084;2023-08-20T00:19:09;8.48;;;6.43;;
78783;SDS011;68127;51.050;14.084;2023-08-20T00:21:38;11.98;;;6.68;;
78783;SDS011;68127;51.050;14.084;2023-08-20T00:24:05;7.93;;;6.22;;
78783;SDS011;68127;51.050;14.084;2023-08-20T00:26:31;10.55;;;6.88;;
78783;SDS011;68127;51.050;14.084;2023-08-20T00:28:57;10.15;;;6.68;;
78783;SDS011;68127;51.050;14.084;2023-08-20T00:31:22;8.60;;;6.70;;
78783;SDS011;68127;51.050;14.084;2023-08-20T00:33:47;8.27;;;6.60;;
78783;SDS011;68127;51.050;14.084;2023-08-20T00:36:12;7.97;;;6.50;;
78783;SDS011;68127;51.050;14.084;2023-08-20T00:38:38;7.82;;;6.43;;
78783;SDS011;68127;51.050;14.084;2023-08-20T00:41:05;8.93;;;6.40;;
78783;SDS011;68127;51.050;14.084;2023-08-20T00:43:30;8.88;;;6.80;;
78783;SDS011;68127;51.050;14.084;2023-08-20T00:45:55;9.98;;;6.25;;
78783;SDS011;68127;51.050;14.084;2023-08-20T00:48:23;8.88;;;6.50;;
78783;SDS011;68127;51.050;14.084;2023-08-20T00:50:49;8.13;;;6.47;;
78783;SDS011;68127;51.050;14.084;2023-08-20T00:53:14;11.18;;;6.35;;
78783;SDS011;68127;51.050;14.084;2023-08-20T00:55:40;11.93;;;6.72;;
78783;SDS011;68127;51.050;14.084;2023-08-20T00:58:07;9.75;;;6.53;;
78783;SDS011;68127;51.050;14.084;2023-08-20T01:00:32;9.07;;;6.43;;
78783;SDS011;68127;51.050;14.084;2023-08-20T01:02:58;8.20;;;6.57;;
78783;SDS011;68127;51.050;14.084;2023-08-20T01:05:23;8.20;;;6.20;;
78783;SDS011;68127;51.050;14.084;2023-08-20T01:08:08;7.05;;;5.85;;
78783;SDS011;68127;51.050;14.084;2023-08-20T01:10:51;7.57;;;6.55;;
78783;SDS011;68127;51.050;14.084;2023-08-20T01:13:21;8.57;;;6.55;;
78783;SDS011;68127;51.050;14.084;2023-08-20T01:15:46;9.82;;;6.63;;
78783;SDS011;68127;51.050;14.084;2023-08-20T01:18:12;12.73;;;6.60;;
78783;SDS011;68127;51.050;14.084;2023-08-20T01:20:39;9.45;;;6.50;;
78783;SDS011;68127;51.050;14.084;2023-08-20T01:26:04;8.93;;;6.43;;
78783;SDS011;68127;51.050;14.084;2023-08-20T01:28:36;9.32;;;6.28;;
78783;SDS011;68127;51.050;14.084;2023-08-20T01:31:02;8.55;;;6.35;;
78783;SDS011;68127;51.050;14.084;2023-08-20T01:33:28;8.57;;;6.10;;
78783;SDS011;68127;51.050;14.084;2023-08-20T01:35:54;10.18;;;6.18;;
78783;SDS011;68127;51.050;14.084;2023-08-20T01:38:20;7.70;;;5.72;;
78783;SDS011;68127;51.050;14.084;2023-08-20T01:40:46;8.70;;;6.25;;
78783;SDS011;68127;51.050;14.084;2023-08-20T01:43:11;7.57;;;6.20;;
78783;SDS011;68127;51.050;14.084;2023-08-20T01:45:37;8.10;;;6.65;;
78783;SDS011;68127;51.050;14.084;2023-08-20T01:48:02;9.35;;;6.13;;
78783;SDS011;68127;51.050;14.084;2023-08-20T01:50:28;9.23;;;6.07;;
78783;SDS011;68127;51.050;14.084;2023-08-20T01:52:54;8.38;;;6.28;;
78783;SDS011;68127;51.050;14.084;2023-08-20T01:55:19;9.20;;;6.45;;
78783;SDS011;68127;51.050;14.084;2023-08-20T01:57:44;7.82;;;6.20;;
78783;SDS011;68127;51.050;14.084;2023-08-20T02:00:10;7.88;;;6.28;;
78783;SDS011;68127;51.050;14.084;2023-08-20T02:02:36;7.55;;;6.25;;
78783;SDS011;68127;51.050;14.084;2023-08-20T02:05:01;8.27;;;6.60;;
78783;SDS011;68127;51.050;14.084;2023-08-20T02:07:26;8.27;;;5.78;;
78783;SDS011;68127;51.050;14.084;2023-08-20T02:09:52;8.30;;;6.13;;
78783;SDS011;68127;51.050;14.084;2023-08-20T02:12:17;7.25;;;6.20;;
78783;SDS011;68127;51.050;14.084;2023-08-20T02:14:43;8.43;;;6.20;;
78783;SDS011;68127;51.050;14.084;2023-08-20T02:17:08;9.52;;;6.15;;
78783;SDS011;68127;51.050;14.084;2023-08-20T02:19:33;9.40;;;6.30;;
78783;SDS011;68127;51.050;14.084;2023-08-20T02:21:58;7.30;;;5.80;;
78783;SDS011;68127;51.050;14.084;2023-08-20T02:24:24;7.53;;;5.90;;
78783;SDS011;68127;51.050;14.084;2023-08-20T02:26:49;7.93;;;6.03;;
78783;SDS011;68127;51.050;14.084;2023-08-20T02:29:14;9.43;;;6.15;;
78783;SDS011;68127;51.050;14.084;2023-08-20T02:31:40;7.90;;;6.32;;
78783;SDS011;68127;51.050;14.084;2023-08-20T02:34:05;9.40;;;6.32;;
78783;SDS011;68127;51.050;14.084;2023-08-20T02:36:30;7.70;;;5.72;;
78783;SDS011;68127;51.050;14.084;2023-08-20T02:38:56;8.80;;;6.10;;
78783;SDS011;68127;51.050;14.084;2023-08-20T02:41:21;9.35;;;5.90;;
78783;SDS011;68127;51.050;14.084;2023-08-20T02:43:47;7.28;;;5.95;;
78783;SDS011;68127;51.050;14.084;2023-08-20T02:46:12;6.88;;;5.80;;
78783;SDS011;68127;51.050;14.084;2023-08-20T02:48:37;9.73;;;6.18;;
78783;SDS011;68127;51.050;14.084;2023-08-20T02:51:03;8.63;;;6.35;;
78783;SDS011;68127;51.050;14.084;2023-08-20T02:53:28;9.23;;;6.40;;
78783;SDS011;68127;51.050;14.084;2023-08-20T02:55:53;7.85;;;5.97;;
78783;SDS011;68127;51.050;14.084;2023-08-20T02:58:19;8.18;;;5.88;;
78783;SDS011;68127;51.050;14.084;2023-08-20T03:00:44;10.02;;;6.25;;
78783;SDS011;68127;51.050;14.084;2023-08-20T03:03:10;8.80;;;6.00;;
78783;SDS011;68127;51.050;14.084;2023-08-20T03:05:35;7.13;;;6.13;;
78783;SDS011;68127;51.050;14.084;2023-08-20T03:08:01;8.55;;;6.85;;
78783;SDS011;68127;51.050;14.084;2023-08-20T03:10:28;9.02;;;6.60;;
78783;SDS011;68127;51.050;14.084;2023-08-20T03:12:54;9.10;;;6.70;;
78783;SDS011;68127;51.050;14.084;2023-08-20T03:15:19;9.10;;;6.32;;
78783;SDS011;68127;51.050;14.084;2023-08-20T03:17:44;8.05;;;5.93;;
78783;SDS011;68127;51.050;14.084;2023-08-20T03:20:10;7.53;;;6.00;;
78783;SDS011;68127;51.050;14.084;2023-08-20T03:22:36;9.68;;;6.60;;
78783;SDS011;68127;51.050;14.084;2023-08-20T03:25:02;8.18;;;6.45;;
78783;SDS011;68127;51.050;14.084;2023-08-20T03:27:27;9.13;;;6.43;;
78783;SDS011;68127;51.050;14.084;2023-08-20T03:29:53;9.20;;;6.15;;
78783;SDS011;68127;51.050;14.084;2023-08-20T03:32:18;9.75;;;6.65;;
78783;SDS011;68127;51.050;14.084;2023-08-20T03:34:43;8.95;;;6.45;;
78783;SDS011;68127;51.050;14.084;2023-08-20T03:37:09;11.05;;;6.10;;
78783;SDS011;68127;51.050;14.084;2023-08-20T03:39:34;8.65;;;6.30;;
78783;SDS011;68127;51.050;14.084;2023-08-20T03:41:59;9.02;;;6.10;;
78783;SDS011;68127;51.050;14.084;2023-08-20T03:44:25;8.98;;;6.30;;
78783;SDS011;68127;51.050;14.084;2023-08-20T03:46:50;9.13;;;6.60;;
78783;SDS011;68127;51.050;14.084;2023-08-20T03:49:15;8.20;;;6.40;;
78783;SDS011;68127;51.050;14.084;2023-08-20T03:51:40;9.43;;;6.20;;
78783;SDS011;68127;51.050;14.084;2023-08-20T03:54:07;8.90;;;6.80;;
78783;SDS011;68127;51.050;14.084;2023-08-20T03:56:33;10.00;;;6.90;;
78783;SDS011;68127;51.050;14.084;2023-08-20T03:58:58;8.32;;;6.72;;
78783;SDS011;68127;51.050;14.084;2023-08-20T04:01:23;9.07;;;6.60;;
78783;SDS011;68127;51.050;14.084;2023-08-20T04:03:49;9.38;;;6.82;;
78783;SDS011;68127;51.050;14.084;2023-08-20T04:06:14;9.65;;;6.78;;
78783;SDS011;68127;51.050;14.084;2023-08-20T04:08:39;9.02;;;6.35;;
78783;SDS011;68127;51.050;14.084;2023-08-20T04:11:05;11.10;;;7.22;;
78783;SDS011;68127;51.050;14.084;2023-08-20T04:13:30;9.70;;;7.55;;
78783;SDS011;68127;51.050;14.084;2023-08-20T04:15:56;9.27;;;7.10;;
78783;SDS011;68127;51.050;14.084;2023-08-20T04:18:21;11.13;;;7.72;;
78783;SDS011;68127;51.050;14.084;2023-08-20T04:20:47;10.05;;;6.93;;
78783;SDS011;68127;51.050;14.084;2023-08-20T04:23:12;13.10;;;6.90;;
78783;SDS011;68127;51.050;14.084;2023-08-20T04:25:38;8.98;;;7.13;;
78783;SDS011;68127;51.050;14.084;2023-08-20T04:28:03;12.70;;;7.20;;
78783;SDS011;68127;51.050;14.084;2023-08-20T04:30:28;8.32;;;6.95;;
78783;SDS011;68127;51.050;14.084;2023-08-20T04:32:54;11.35;;;7.30;;
78783;SDS011;68127;51.050;14.084;2023-08-20T04:35:19;9.85;;;7.45;;
78783;SDS011;68127;51.050;14.084;2023-08-20T04:37:44;11.10;;;7.00;;
78783;SDS011;68127;51.050;14.084;2023-08-20T04:40:09;12.13;;;7.78;;
78783;SDS011;68127;51.050;14.084;2023-08-20T04:42:35;9.25;;;7.85;;
78783;SDS011;68127;51.050;14.084;2023-08-20T04:45:00;10.00;;;7.72;;
78783;SDS011;68127;51.050;14.084;2023-08-20T04:47:26;10.65;;;8.15;;
78783;SDS011;68127;51.050;14.084;2023-08-20T04:49:51;12.30;;;8.23;;
78783;SDS011;68127;51.050;14.084;2023-08-20T04:52:17;10.98;;;7.85;;
78783;SDS011;68127;51.050;14.084;2023-08-20T04:54:42;11.45;;;8.27;;
78783;SDS011;68127;51.050;14.084;2023-08-20T04:57:07;13.45;;;8.68;;
78783;SDS011;68127;51.050;14.084;2023-08-20T04:59:33;10.82;;;7.68;;
78783;SDS011;68127;51.050;14.084;2023-08-20T05:01:58;15.38;;;8.82;;
78783;SDS011;68127;51.050;14.084;2023-08-20T05:04:23;14.63;;;8.65;;
78783;SDS011;68127;51.050;14.084;2023-08-20T05:06:48;12.35;;;8.45;;
78783;SDS011;68127;51.050;14.084;2023-08-20T05:09:14;12.25;;;7.97;;
78783;SDS011;68127;51.050;14.084;2023-08-20T05:11:40;13.65;;;8.93;;
78783;SDS011;68127;51.050;14.084;2023-08-20T05:14:06;15.38;;;8.90;;
78783;SDS011;68127;51.050;14.084;2023-08-20T05:16:31;10.75;;;9.10;;
78783;SDS011;68127;51.050;14.084;2023-08-20T05:18:56;14.52;;;8.95;;
78783;SDS011;68127;51.050;14.084;2023-08-20T05:21:21;14.90;;;9.32;;
78783;SDS011;68127;51.050;14.084;2023-08-20T05:23:47;15.50;;;10.77;;
78783;SDS011;68127;51.050;14.084;2023-08-20T05:26:12;14.40;;;9.13;;
78783;SDS011;68127;51.050;14.084;2023-08-20T05:28:37;15.00;;;9.32;;
78783;SDS011;68127;51.050;14.084;2023-08-20T05:31:02;15.02;;;9.05;;
78783;SDS011;68127;51.050;14.084;2023-08-20T05:33:28;12.55;;;9.13;;
78783;SDS011;68127;51.050;14.084;2023-08-20T05:35:53;11.68;;;9.23;;
78783;SDS011;68127;51.050;14.084;2023-08-20T05:38:18;10.10;;;8.73;;
78783;SDS011;68127;51.050;14.084;2023-08-20T05:40:43;13.07;;;9.40;;
78783;SDS011;68127;51.050;14.084;2023-08-20T05:43:09;15.05;;;9.32;;
78783;SDS011;68127;51.050;14.084;2023-08-20T05:45:34;11.70;;;9.10;;
78783;SDS011;68127;51.050;14.084;2023-08-20T05:48:00;13.38;;;9.45;;
78783;SDS011;68127;51.050;14.084;2023-08-20T05:50:25;16.77;;;9.02;;
78783;SDS011;68127;51.050;14.084;2023-08-20T05:52:50;12.52;;;9.75;;
78783;SDS011;68127;51.050;14.084;2023-08-20T05:55:16;12.13;;;9.13;;
78783;SDS011;68127;51.050;14.084;2023-08-20T05:57:42;13.02;;;9.68;;
78783;SDS011;68127;51.050;14.084;2023-08-20T06:00:08;12.45;;;9.23;;
78783;SDS011;68127;51.050;14.084;2023-08-20T06:02:34;15.48;;;9.57;;
78783;SDS011;68127;51.050;14.084;2023-08-20T06:04:59;14.25;;;9.60;;
78783;SDS011;68127;51.050;14.084;2023-08-20T06:07:24;11.32;;;9.65;;
78783;SDS011;68127;51.050;14.084;2023-08-20T06:09:50;12.00;;;9.50;;
78783;SDS011;68127;51.050;14.084;2023-08-20T06:12:15;12.13;;;8.90;;
78783;SDS011;68127;51.050;14.084;2023-08-20T06:14:41;16.58;;;9.27;;
78783;SDS011;68127;51.050;14.084;2023-08-20T06:17:06;11.88;;;10.10;;
78783;SDS011;68127;51.050;14.084;2023-08-20T06:19:32;10.98;;;9.05;;
78783;SDS011;68127;51.050;14.084;2023-08-20T06:21:57;13.93;;;9.43;;
78783;SDS011;68127;51.050;14.084;2023-08-20T06:24:23;12.98;;;9.70;;
78783;SDS011;68127;51.050;14.084;2023-08-20T06:26:48;14.07;;;8.93;;
78783;SDS011;68127;51.050;14.084;2023-08-20T06:29:13;12.98;;;9.45;;
78783;SDS011;68127;51.050;14.084;2023-08-20T06:31:38;18.88;;;10.20;;
78783;SDS011;68127;51.050;14.084;2023-08-20T06:34:04;11.55;;;9.13;;
78783;SDS011;68127;51.050;14.084;2023-08-20T06:36:29;13.50;;;9.82;;
78783;SDS011;68127;51.050;14.084;2023-08-20T06:38:54;15.35;;;9.65;;
78783;SDS011;68127;51.050;14.084;2023-08-20T06:41:19;12.73;;;9.15;;
78783;SDS011;68127;51.050;14.084;2023-08-20T06:43:45;11.48;;;8.77;;
78783;SDS011;68127;51.050;14.084;2023-08-20T06:46:10;12.45;;;8.93;;
78783;SDS011;68127;51.050;14.084;2023-08-20T06:48:35;12.35;;;9.05;;
78783;SDS011;68127;51.050;14.084;2023-08-20T06:51:18;10.32;;;9.10;;
78783;SDS011;68127;51.050;14.084;2023-08-20T06:53:45;11.80;;;8.75;;
78783;SDS011;68127;51.050;14.084;2023-08-20T06:56:10;13.75;;;9.30;;
78783;SDS011;68127;51.050;14.084;2023-08-20T06:58:39;14.18;;;9.48;;
78783;SDS011;68127;51.050;14.084;2023-08-20T07:01:05;15.05;;;10.15;;
78783;SDS011;68127;51.050;14.084;2023-08-20T07:03:33;11.98;;;9.27;;
78783;SDS011;68127;51.050;14.084;2023-08-20T07:05:59;12.68;;;9.88;;
78783;SDS011;68127;51.050;14.084;2023-08-20T07:08:25;15.65;;;9.75;;
78783;SDS011;68127;51.050;14.084;2023-08-20T07:10:50;14.18;;;9.88;;
78783;SDS011;68127;51.050;14.084;2023-08-20T07:13:15;13.75;;;9.45;;
78783;SDS011;68127;51.050;14.084;2023-08-20T07:15:41;14.68;;;9.60;;
78783;SDS011;68127;51.050;14.084;2023-08-20T07:18:06;14.50;;;10.02;;
78783;SDS011;68127;51.050;14.084;2023-08-20T07:20:31;13.40;;;9.90;;
78783;SDS011;68127;51.050;14.084;2023-08-20T07:22:56;15.20;;;10.10;;
78783;SDS011;68127;51.050;14.084;2023-08-20T07:25:22;16.40;;;9.70;;
78783;SDS011;68127;51.050;14.084;2023-08-20T07:27:47;12.73;;;10.20;;
78783;SDS011;68127;51.050;14.084;2023-08-20T07:30:12;13.45;;;8.98;;
78783;SDS011;68127;51.050;14.084;2023-08-20T07:32:38;12.73;;;9.70;;
78783;SDS011;68127;51.050;14.084;2023-08-20T07:35:03;13.30;;;9.10;;
78783;SDS011;68127;51.050;14.084;2023-08-20T07:37:29;15.27;;;9.40;;
78783;SDS011;68127;51.050;14.084;2023-08-20T07:39:54;13.10;;;9.35;;
78783;SDS011;68127;51.050;14.084;2023-08-20T07:42:19;12.02;;;9.05;;
78783;SDS011;68127;51.050;14.084;2023-08-20T07:44:51;14.11;;;8.80;;
78783;SDS011;68127;51.050;14.084;2023-08-20T07:47:16;11.30;;;9.07;;
78783;SDS011;68127;51.050;14.084;2023-08-20T07:49:42;12.80;;;9.80;;
78783;SDS011;68127;51.050;14.084;2023-08-20T07:52:07;14.63;;;9.82;;
78783;SDS011;68127;51.050;14.084;2023-08-20T07:54:32;12.27;;;9.27;;
78783;SDS011;68127;51.050;14.084;2023-08-20T07:56:57;14.18;;;9.75;;
78783;SDS011;68127;51.050;14.084;2023-08-20T07:59:23;13.25;;;9.57;;
78783;SDS011;68127;51.050;14.084;2023-08-20T08:01:48;12.60;;;9.48;;
78783;SDS011;68127;51.050;14.084;2023-08-20T08:04:13;14.05;;;9.93;;
78783;SDS011;68127;51.050;14.084;2023-08-20T08:06:38;16.50;;;10.05;;
78783;SDS011;68127;51.050;14.084;2023-08-20T08:09:20;13.20;;;9.80;;
78783;SDS011;68127;51.050;14.084;2023-08-20T08:11:47;16.42;;;9.93;;
78783;SDS011;68127;51.050;14.084;2023-08-20T08:14:13;12.52;;;9.63;;
78783;SDS011;68127;51.050;14.084;2023-08-20T08:16:38;14.20;;;9.50;;
78783;SDS011;68127;51.050;14.084;2023-08-20T08:19:03;11.63;;;9.15;;
78783;SDS011;68127;51.050;14.084;2023-08-20T08:21:28;16.27;;;9.82;;
78783;SDS011;68127;51.050;14.084;2023-08-20T08:23:54;12.93;;;9.30;;
78783;SDS011;68127;51.050;14.084;2023-08-20T08:26:20;13.30;;;9.75;;
78783;SDS011;68127;51.050;14.084;2023-08-20T08:28:45;12.05;;;9.43;;
78783;SDS011;68127;51.050;14.084;2023-08-20T08:31:10;11.38;;;9.48;;
78783;SDS011;68127;51.050;14.084;2023-08-20T08:33:36;10.75;;;9.50;;
78783;SDS011;68127;51.050;14.084;2023-08-20T08:36:01;12.15;;;9.52;;
78783;SDS011;68127;51.050;14.084;2023-08-20T08:38:26;13.18;;;9.50;;
78783;SDS011;68127;51.050;14.084;2023-08-20T08:40:51;12.43;;;9.27;;
78783;SDS011;68127;51.050;14.084;2023-08-20T08:43:17;12.38;;;8.88;;
78783;SDS011;68127;51.050;14.084;2023-08-20T08:45:46;11.65;;;9.13;;
78783;SDS011;68127;51.050;14.084;2023-08-20T08:48:14;11.00;;;9.55;;
78783;SDS011;68127;51.050;14.084;2023-08-20T08:50:40;11.82;;;9.50;;
78783;SDS011;68127;51.050;14.084;2023-08-20T08:53:05;13.05;;;8.85;;
78783;SDS011;68127;51.050;14.084;2023-08-20T08:55:31;10.40;;;8.95;;
78783;SDS011;68127;51.050;14.084;2023-08-20T08:57:56;10.20;;;8.88;;
78783;SDS011;68127;51.050;14.084;2023-08-20T09:00:22;11.27;;;8.38;;
78783;SDS011;68127;51.050;14.084;2023-08-20T09:02:47;11.95;;;8.52;;
78783;SDS011;68127;51.050;14.084;2023-08-20T09:05:13;8.73;;;7.80;;
78783;SDS011;68127;51.050;14.084;2023-08-20T09:07:41;11.85;;;9.10;;
78783;SDS011;68127;51.050;14.084;2023-08-20T09:10:07;10.13;;;8.27;;
78783;SDS011;68127;51.050;14.084;2023-08-20T09:12:33;10.63;;;8.38;;
78783;SDS011;68127;51.050;14.084;2023-08-20T09:14:59;11.05;;;9.00;;
78783;SDS011;68127;51.050;14.084;2023-08-20T09:17:25;13.27;;;8.43;;
78783;SDS011;68127;51.050;14.084;2023-08-20T09:19:53;11.27;;;7.90;;
78783;SDS011;68127;51.050;14.084;2023-08-20T09:22:19;12.60;;;8.95;;
78783;SDS011;68127;51.050;14.084;2023-08-20T09:24:45;10.00;;;7.85;;
78783;SDS011;68127;51.050;14.084;2023-08-20T09:27:12;12.23;;;7.97;;
78783;SDS011;68127;51.050;14.084;2023-08-20T09:32:16;11.80;;;8.38;;
78783;SDS011;68127;51.050;14.084;2023-08-20T09:34:52;10.93;;;9.10;;
78783;SDS011;68127;51.050;14.084;2023-08-20T09:37:19;13.85;;;7.90;;
78783;SDS011;68127;51.050;14.084;2023-08-20T09:39:46;11.55;;;8.85;;
78783;SDS011;68127;51.050;14.084;2023-08-20T09:42:11;9.68;;;8.20;;
78783;SDS011;68127;51.050;14.084;2023-08-20T09:44:41;13.38;;;8.57;;
78783;SDS011;68127;51.050;14.084;2023-08-20T09:47:11;12.38;;;8.20;;
78783;SDS011;68127;51.050;14.084;2023-08-20T09:49:41;11.40;;;8.65;;
78783;SDS011;68127;51.050;14.084;2023-08-20T09:52:08;10.75;;;8.52;;
78783;SDS011;68127;51.050;14.084;2023-08-20T09:57:21;11.57;;;8.55;;
78783;SDS011;68127;51.050;14.084;2023-08-20T09:59:52;10.30;;;8.63;;
78783;SDS011;68127;51.050;14.084;2023-08-20T10:02:17;11.80;;;8.65;;
78783;SDS011;68127;51.050;14.084;2023-08-20T10:04:44;10.57;;;8.60;;
78783;SDS011;68127;51.050;14.084;2023-08-20T10:07:09;9.95;;;8.07;;
78783;SDS011;68127;51.050;14.084;2023-08-20T10:09:35;11.60;;;7.90;;
78783;SDS011;68127;51.050;14.084;2023-08-20T10:12:01;14.50;;;9.18;;
78783;SDS011;68127;51.050;14.084;2023-08-20T10:14:26;11.77;;;8.80;;
78783;SDS011;68127;51.050;14.084;2023-08-20T10:16:52;11.73;;;9.02;;
78783;SDS011;68127;51.050;14.084;2023-08-20T10:19:18;11.52;;;9.45;;
78783;SDS011;68127;51.050;14.084;2023-08-20T10:21:44;9.90;;;8.88;;
78783;SDS011;68127;51.050;14.084;2023-08-20T10:24:12;11.82;;;8.98;;
78783;SDS011;68127;51.050;14.084;2023-08-20T10:26:41;12.90;;;9.18;;
78783;SDS011;68127;51.050;14.084;2023-08-20T10:32:09;10.75;;;9.10;;
78783;SDS011;68127;51.050;14.084;2023-08-20T10:34:35;11.07;;;9.02;;
78783;SDS011;68127;51.050;14.084;2023-08-20T10:37:03;15.90;;;9.25;;
78783;SDS011;68127;51.050;14.084;2023-08-20T10:39:33;15.10;;;9.10;;
78783;SDS011;68127;51.050;14.084;2023-08-20T10:45:01;13.65;;;8.73;;
78783;SDS011;68127;51.050;14.084;2023-08-20T10:50:09;9.25;;;8.07;;
78783;SDS011;68127;51.050;14.084;2023-08-20T10:52:47;12.73;;;8.68;;
78783;SDS011;68127;51.050;14.084;2023-08-20T10:55:21;11.30;;;8.30;;
78783;SDS011;68127;51.050;14.084;2023-08-20T10:57:48;10.65;;;8.10;;
78783;SDS011;68127;51.050;14.084;2023-08-20T11:00:20;10.63;;;8.95;;
78783;SDS011;68127;51.050;14.084;2023-08-20T11:02:45;11.27;;;8.70;;
78783;SDS011;68127;51.050;14.084;2023-08-20T11:05:21;9.10;;;7.88;;
78783;SDS011;68127;51.050;14.084;2023-08-20T11:07:46;10.90;;;8.80;;
78783;SDS011;68127;51.050;14.084;2023-08-20T11:10:16;12.57;;;8.70;;
78783;SDS011;68127;51.050;14.084;2023-08-20T11:12:42;10.95;;;8.13;;
78783;SDS011;68127;51.050;14.084;2023-08-20T11:15:09;11.70;;;8.32;;
78783;SDS011;68127;51.050;14.084;2023-08-20T11:17:39;10.10;;;8.35;;
78783;SDS011;68127;51.050;14.084;2023-08-20T11:20:08;13.80;;;8.25;;
78783;SDS011;68127;51.050;14.084;2023-08-20T11:22:36;12.10;;;8.30;;
78783;SDS011;68127;51.050;14.084;2023-08-20T11:25:01;12.65;;;8.25;;
78783;SDS011;68127;51.050;14.084;2023-08-20T11:27:27;13.15;;;7.90;;
78783;SDS011;68127;51.050;14.084;2023-08-20T11:29:52;12.23;;;7.78;;
78783;SDS011;68127;51.050;14.084;2023-08-20T11:32:18;11.70;;;7.70;;
78783;SDS011;68127;51.050;14.084;2023-08-20T11:34:44;9.77;;;7.65;;
78783;SDS011;68127;51.050;14.084;2023-08-20T11:37:09;10.75;;;7.55;;
78783;SDS011;68127;51.050;14.084;2023-08-20T11:39:36;11.98;;;8.13;;
78783;SDS011;68127;51.050;14.084;2023-08-20T11:42:01;10.45;;;7.78;;
78783;SDS011;68127;51.050;14.084;2023-08-20T11:44:27;10.43;;;7.35;;
78783;SDS011;68127;51.050;14.084;2023-08-20T11:46:52;10.07;;;7.53;;
78783;SDS011;68127;51.050;14.084;2023-08-20T11:49:20;11.73;;;7.30;;
78783;SDS011;68127;51.050;14.084;2023-08-20T11:51:51;9.70;;;7.72;;
78783;SDS011;68127;51.050;14.084;2023-08-20T11:54:17;8.38;;;7.30;;
78783;SDS011;68127;51.050;14.084;2023-08-20T11:56:44;10.90;;;6.65;;
78783;SDS011;68127;51.050;14.084;2023-08-20T11:59:14;10.88;;;7.65;;
78783;SDS011;68127;51.050;14.084;2023-08-20T12:01:40;10.93;;;6.45;;
78783;SDS011;68127;51.050;14.084;2023-08-20T12:04:06;8.55;;;6.30;;
78783;SDS011;68127;51.050;14.084;2023-08-20T12:06:33;8.88;;;5.90;;
78783;SDS011;68127;51.050;14.084;2023-08-20T12:08:59;8.68;;;6.25;;
78783;SDS011;68127;51.050;14.084;2023-08-20T12:11:28;10.50;;;7.30;;
78783;SDS011;68127;51.050;14.084;2023-08-20T12:13:54;8.85;;;7.03;;
78783;SDS011;68127;51.050;14.084;2023-08-20T12:16:21;10.73;;;7.68;;
78783;SDS011;68127;51.050;14.084;2023-08-20T12:18:47;12.43;;;7.20;;
78783;SDS011;68127;51.050;14.084;2023-08-20T12:21:12;9.20;;;7.00;;
78783;SDS011;68127;51.050;14.084;2023-08-20T12:23:37;10.90;;;7.55;;
78783;SDS011;68127;51.050;14.084;2023-08-20T12:26:02;10.13;;;7.15;;
78783;SDS011;68127;51.050;14.084;2023-08-20T12:28:28;8.48;;;7.25;;
78783;SDS011;68127;51.050;14.084;2023-08-20T12:30:54;9.27;;;7.38;;
78783;SDS011;68127;51.050;14.084;2023-08-20T12:33:19;12.25;;;7.10;;
78783;SDS011;68127;51.050;14.084;2023-08-20T12:35:45;10.13;;;7.38;;
78783;SDS011;68127;51.050;14.084;2023-08-20T12:38:11;9.50;;;7.25;;
78783;SDS011;68127;51.050;14.084;2023-08-20T12:40:36;9.07;;;7.05;;
78783;SDS011;68127;51.050;14.084;2023-08-20T12:43:01;8.68;;;7.18;;
78783;SDS011;68127;51.050;14.084;2023-08-20T12:45:27;10.05;;;7.28;;
78783;SDS011;68127;51.050;14.084;2023-08-20T12:47:53;9.65;;;6.80;;
78783;SDS011;68127;51.050;14.084;2023-08-20T12:50:18;9.40;;;6.75;;
78783;SDS011;68127;51.050;14.084;2023-08-20T12:52:44;8.57;;;6.70;;
78783;SDS011;68127;51.050;14.084;2023-08-20T12:55:09;7.65;;;6.55;;
78783;SDS011;68127;51.050;14.084;2023-08-20T12:57:35;9.07;;;6.55;;
78783;SDS011;68127;51.050;14.084;2023-08-20T13:00:00;9.15;;;6.88;;
78783;SDS011;68127;51.050;14.084;2023-08-20T13:02:26;11.23;;;6.70;;
78783;SDS011;68127;51.050;14.084;2023-08-20T13:04:52;9.80;;;6.53;;
78783;SDS011;68127;51.050;14.084;2023-08-20T13:07:17;10.77;;;7.13;;
78783;SDS011;68127;51.050;14.084;2023-08-20T13:09:43;8.43;;;6.93;;
78783;SDS011;68127;51.050;14.084;2023-08-20T13:12:09;10.63;;;6.82;;
78783;SDS011;68127;51.050;14.084;2023-08-20T13:14:37;14.45;;;7.35;;
78783;SDS011;68127;51.050;14.084;2023-08-20T13:17:04;11.50;;;7.22;;
78783;SDS011;68127;51.050;14.084;2023-08-20T13:19:30;11.07;;;6.88;;
78783;SDS011;68127;51.050;14.084;2023-08-20T13:21:55;10.70;;;7.05;;
78783;SDS011;68127;51.050;14.084;2023-08-20T13:24:20;8.98;;;7.10;;
78783;SDS011;68127;51.050;14.084;2023-08-20T13:26:46;12.25;;;7.20;;
78783;SDS011;68127;51.050;14.084;2023-08-20T13:29:11;10.95;;;7.13;;
78783;SDS011;68127;51.050;14.084;2023-08-20T13:31:36;10.82;;;6.95;;
78783;SDS011;68127;51.050;14.084;2023-08-20T13:34:02;10.75;;;7.10;;
78783;SDS011;68127;51.050;14.084;2023-08-20T13:36:27;11.70;;;7.15;;
78783;SDS011;68127;51.050;14.084;2023-08-20T13:38:52;9.45;;;7.22;;
78783;SDS011;68127;51.050;14.084;2023-08-20T13:41:18;9.13;;;7.00;;
78783;SDS011;68127;51.050;14.084;2023-08-20T13:43:43;10.05;;;6.90;;
78783;SDS011;68127;51.050;14.084;2023-08-20T13:46:08;9.40;;;6.82;;
78783;SDS011;68127;51.050;14.084;2023-08-20T13:48:33;9.20;;;7.00;;
78783;SDS011;68127;51.050;14.084;2023-08-20T13:50:59;10.13;;;6.97;;
78783;SDS011;68127;51.050;14.084;2023-08-20T13:53:24;10.00;;;6.38;;
78783;SDS011;68127;51.050;14.084;2023-08-20T13:55:49;13.13;;;6.95;;
78783;SDS011;68127;51.050;14.084;2023-08-20T13:58:15;10.45;;;6.78;;
78783;SDS011;68127;51.050;14.084;2023-08-20T14:00:40;13.32;;;6.85;;
78783;SDS011;68127;51.050;14.084;2023-08-20T14:03:05;8.02;;;6.20;;
78783;SDS011;68127;51.050;14.084;2023-08-20T14:05:31;8.50;;;6.45;;
78783;SDS011;68127;51.050;14.084;2023-08-20T14:07:56;9.85;;;6.53;;
78783;SDS011;68127;51.050;14.084;2023-08-20T14:10:21;10.82;;;6.25;;
78783;SDS011;68127;51.050;14.084;2023-08-20T14:12:47;7.80;;;5.63;;
78783;SDS011;68127;51.050;14.084;2023-08-20T14:15:12;8.25;;;6.57;;
78783;SDS011;68127;51.050;14.084;2023-08-20T14:17:38;10.75;;;6.40;;
78783;SDS011;68127;51.050;14.084;2023-08-20T14:20:03;9.13;;;6.72;;
78783;SDS011;68127;51.050;14.084;2023-08-20T14:22:30;10.23;;;6.70;;
78783;SDS011;68127;51.050;14.084;2023-08-20T14:24:55;10.10;;;6.45;;
78783;SDS011;68127;51.050;14.084;2023-08-20T14:27:20;8.35;;;6.15;;
78783;SDS011;68127;51.050;14.084;2023-08-20T14:29:47;9.55;;;6.85;;
78783;SDS011;68127;51.050;14.084;2023-08-20T14:32:12;12.73;;;6.35;;
78783;SDS011;68127;51.050;14.084;2023-08-20T14:34:38;8.98;;;6.53;;
78783;SDS011;68127;51.050;14.084;2023-08-20T14:37:03;7.97;;;6.25;;